Time;durP1;ratioP1;P1;durP2;ratioP2;P2;SDS_P1;SDS_P2;PMS_P1;PMS_P2;Temp;Humidity;BMP_temperature;BMP_pressure;BME280_temperature;BME280_humidity;BME280_pressure;Samples;Min_cycle;Max_cycle;Signal;HPM_P1;HPM_P2
2022/10/09 00:00:20;;;;;;;10.93;6.50;;;;;;;12.57;100.00;101854.72;2073970;28;20436;-60
2022/10/09 00:01:23;;;;;;;9.57;6.33;;;;;;;12.57;100.00;101851.13;2074213;28;20548;-60
2022/10/09 00:02:23;;;;;;;10.80;6.23;;;;;;;12.53;100.00;101844.81;2074092;28;20183;-59
2022/10/09 00:03:24;;;;;;;11.40;6.40;;;;;;;12.51;100.00;101845.25;2074236;28;20419;-59
2022/10/09 00:04:24;;;;;;;8.83;5.90;;;;;;;12.49;100.00;101856.00;2074245;28;20179;-59
2022/10/09 00:05:25;;;;;;;7.07;6.10;;;;;;;12.48;100.00;101845.28;2074192;28;20215;-59
2022/10/09 00:06:29;;;;;;;13.83;6.43;;;;;;;12.45;100.00;101852.47;2074261;28;20185;-60
2022/10/09 00:07:30;;;;;;;10.03;6.20;;;;;;;12.43;100.00;101854.09;2074277;28;20478;-59
2022/10/09 00:08:30;;;;;;;9.30;6.53;;;;;;;11.97;100.00;101784.34;2074287;28;20478;-59
2022/10/09 00:09:31;;;;;;;7.87;6.30;;;;;;;12.37;100.00;101847.41;2074385;28;20211;-59
2022/10/09 00:10:31;;;;;;;9.13;6.77;;;;;;;12.36;100.00;101848.63;2074189;28;20182;-59
2022/10/09 00:11:33;;;;;;;6.97;6.20;;;;;;;12.21;100.00;101834.09;2074042;28;20190;-59
2022/10/09 00:12:33;;;;;;;9.00;7.10;;;;;;;11.85;100.00;101777.34;2074128;28;20662;-59
2022/10/09 00:13:35;;;;;;;7.90;6.10;;;;;;;12.31;100.00;101840.72;2068220;28;20887;-59
2022/10/09 00:14:35;;;;;;;8.97;7.10;;;;;;;12.28;100.00;101841.56;2066087;28;20292;-59
2022/10/09 00:15:40;;;;;;;9.90;6.87;;;;;;;12.26;100.00;101842.00;2069584;28;20448;-60
2022/10/09 00:16:41;;;;;;;8.60;6.80;;;;;;;12.18;100.00;101831.34;2071195;28;20182;-59
2022/10/09 00:17:41;;;;;;;9.40;6.90;;;;;;;12.23;100.00;101842.81;2067916;28;20446;-59
2022/10/09 00:18:42;;;;;;;8.23;7.27;;;;;;;12.23;100.00;101839.22;2074250;28;20654;-60
2022/10/09 00:19:42;;;;;;;8.83;7.20;;;;;;;12.22;100.00;101837.66;2074227;28;20232;-59
2022/10/09 00:20:44;;;;;;;9.63;7.50;;;;;;;12.19;100.00;101838.50;2073235;28;20303;-59
2022/10/09 00:21:45;;;;;;;10.83;7.53;;;;;;;12.18;100.00;101837.69;2073676;28;20179;-59
2022/10/09 00:22:45;;;;;;;8.53;6.80;;;;;;;12.18;100.00;101839.69;2074020;28;20964;-59
2022/10/09 00:23:46;;;;;;;9.63;7.20;;;;;;;11.97;100.00;101818.47;2073936;28;20261;-59
2022/10/09 00:24:46;;;;;;;10.70;7.33;;;;;;;12.13;100.00;101827.03;2074138;28;20224;-60
2022/10/09 00:25:58;;;;;;;10.03;7.47;;;;;;;12.18;100.00;101836.91;2073455;28;20345;-59
2022/10/09 00:26:58;;;;;;;10.20;7.63;;;;;;;12.17;100.00;101830.56;2065626;28;20171;-60
2022/10/09 00:27:59;;;;;;;11.50;7.50;;;;;;;12.02;100.00;101808.91;2065903;28;20930;-59
2022/10/09 00:29:00;;;;;;;8.53;7.03;;;;;;;12.16;100.00;101829.00;2072202;28;20186;-59
2022/10/09 00:30:00;;;;;;;10.77;7.63;;;;;;;12.15;100.00;101835.75;2074079;28;20456;-59
2022/10/09 00:31:04;;;;;;;9.67;7.57;;;;;;;12.11;100.00;101825.88;2074077;28;20678;-59
2022/10/09 00:32:04;;;;;;;10.40;7.30;;;;;;;12.07;100.00;101830.69;2073898;28;20264;-62
2022/10/09 00:33:05;;;;;;;8.77;7.07;;;;;;;12.06;100.00;101829.91;2074213;28;20471;-62
2022/10/09 00:34:05;;;;;;;8.27;7.03;;;;;;;12.05;100.00;101827.53;2074011;28;20198;-62
2022/10/09 00:35:06;;;;;;;13.07;6.80;;;;;;;12.04;100.00;101829.50;2073969;28;20855;-62
2022/10/09 00:36:10;;;;;;;9.50;7.00;;;;;;;12.00;100.00;101830.75;2074022;28;20194;-62
2022/10/09 00:37:11;;;;;;;9.30;6.97;;;;;;;11.97;100.00;101820.47;2073752;28;20189;-62
2022/10/09 00:38:12;;;;;;;10.93;6.80;;;;;;;11.44;100.00;101739.66;2074149;28;20424;-62
2022/10/09 00:39:12;;;;;;;7.73;6.93;;;;;;;11.90;100.00;101826.91;2074069;28;20264;-62
2022/10/09 00:40:14;;;;;;;8.23;6.93;;;;;;;11.89;100.00;101827.31;2071975;28;20166;-62
2022/10/09 00:41:19;;;;;;;8.17;7.20;;;;;;;11.92;100.00;101818.13;2066056;28;20267;-62
2022/10/09 00:42:20;;;;;;;8.47;6.93;;;;;;;11.93;100.00;101820.50;2065980;28;20805;-61
2022/10/09 00:43:40;;;;;;;11.07;7.43;;;;;;;11.92;100.00;101815.34;2065959;28;20425;-62
2022/10/09 00:44:59;;;;;;;11.83;7.53;;;;;;;11.92;100.00;101827.28;2066006;28;20190;-62
2022/10/09 00:45:59;;;;;;;9.77;6.97;;;;;;;11.92;100.00;101826.47;2066038;28;20967;-62
2022/10/09 00:46:59;;;;;;;9.93;6.83;;;;;;;11.83;100.00;101815.84;2065970;28;20875;-62
2022/10/09 00:48:03;;;;;;;12.53;6.97;;;;;;;11.90;100.00;101824.13;2065811;28;20174;-62
2022/10/09 00:49:06;;;;;;;18.73;8.23;;;;;;;11.90;100.00;101832.47;2065681;28;20233;-62
2022/10/09 00:50:20;;;;;;;13.43;7.57;;;;;;;11.84;100.00;101803.53;2065678;28;20421;-62
2022/10/09 00:51:21;;;;;;;13.63;6.97;;;;;;;11.91;100.00;101825.69;2065893;28;20881;-62
2022/10/09 00:52:23;;;;;;;12.73;7.40;;;;;;;11.90;100.00;101815.78;2064969;28;20425;-62
2022/10/09 00:53:27;;;;;;;11.20;8.10;;;;;;;11.87;100.00;101824.94;2065280;28;20660;-62
2022/10/09 00:54:33;;;;;;;14.50;7.97;;;;;;;11.83;100.00;101826.97;2066513;28;20425;-62
2022/10/09 00:55:34;;;;;;;13.03;7.37;;;;;;;11.75;100.00;101803.25;2073969;28;20883;-62
2022/10/09 00:56:35;;;;;;;14.47;7.83;;;;;;;11.84;100.00;101825.75;2073886;28;20423;-62
2022/10/09 00:57:36;;;;;;;12.50;7.57;;;;;;;11.85;100.00;101840.44;2074062;28;20507;-62
2022/10/09 00:58:37;;;;;;;13.17;7.57;;;;;;;11.84;100.00;101822.97;2073878;28;20184;-62
2022/10/09 00:59:39;;;;;;;11.47;7.17;;;;;;;11.84;100.00;101822.19;2073836;28;20423;-62
2022/10/09 01:00:40;;;;;;;9.57;7.00;;;;;;;11.82;100.00;101822.59;2073910;28;20651;-62
2022/10/09 01:01:41;;;;;;;12.37;6.93;;;;;;;11.83;100.00;101823.41;2073890;28;20453;-62
2022/10/09 01:02:41;;;;;;;13.97;6.57;;;;;;;11.82;100.00;101819.03;2073783;28;20952;-62
2022/10/09 01:03:42;;;;;;;12.63;7.90;;;;;;;11.75;100.00;101817.13;2073947;28;20178;-62
2022/10/09 01:04:42;;;;;;;16.77;7.70;;;;;;;11.75;100.00;101824.66;2073750;28;20166;-62
2022/10/09 01:06:01;;;;;;;12.37;7.77;;;;;;;11.76;100.00;101820.69;2073948;28;20178;-62
2022/10/09 01:07:17;;;;;;;12.10;7.60;;;;;;;11.77;100.00;101822.25;2065193;28;20193;-61
2022/10/09 01:08:30;;;;;;;10.40;7.40;;;;;;;11.77;100.00;101817.50;2065412;28;20928;-61
2022/10/09 01:09:41;;;;;;;12.77;7.47;;;;;;;11.76;100.00;101817.91;2066038;28;20396;-61
2022/10/09 01:10:58;;;;;;;13.37;7.00;;;;;;;11.77;100.00;101816.69;2072875;28;20469;-62
2022/10/09 01:12:08;;;;;;;11.73;6.80;;;;;;;11.77;100.00;101813.91;2073441;28;20413;-61
2022/10/09 01:13:37;;;;;;;11.70;6.63;;;;;;;11.77;100.00;101817.50;2073607;28;20411;-61
2022/10/09 01:15:02;;;;;;;12.30;7.03;;;;;;;11.78;100.00;101826.63;2073827;28;20451;-61
2022/10/09 01:16:23;;;;;;;8.10;6.60;;;;;;;11.75;100.00;101817.13;2073316;28;20914;-61
2022/10/09 01:17:39;;;;;;;10.17;6.97;;;;;;;11.74;100.00;101814.75;2073825;28;20919;-61
2022/10/09 01:18:43;;;;;;;8.73;6.57;;;;;;;11.73;100.00;101825.06;2073540;28;20514;-61
2022/10/09 01:20:04;;;;;;;9.67;6.80;;;;;;;11.73;100.00;101816.75;2073786;28;20452;-60
2022/10/09 01:21:07;;;;;;;8.43;6.43;;;;;;;11.72;100.00;101812.38;2073887;28;20421;-60
2022/10/09 01:22:08;;;;;;;7.70;6.87;;;;;;;11.74;100.00;101817.53;2073624;28;20411;-61
2022/10/09 01:23:23;;;;;;;9.07;6.43;;;;;;;11.74;100.00;101809.97;2073486;28;20429;-61
2022/10/09 01:24:35;;;;;;;11.93;6.10;;;;;;;11.54;100.00;101781.19;2073728;28;20181;-61
2022/10/09 01:25:39;;;;;;;10.43;6.27;;;;;;;11.76;100.00;101810.38;2073793;28;20486;-61
2022/10/09 01:26:45;;;;;;;7.70;6.40;;;;;;;11.77;100.00;101809.16;2068529;28;20456;-61
2022/10/09 01:27:46;;;;;;;9.60;6.70;;;;;;;11.77;100.00;101808.38;2065583;28;20926;-61
2022/10/09 01:28:51;;;;;;;10.17;6.43;;;;;;;11.79;100.00;101815.09;2068634;28;20934;-61
2022/10/09 01:30:00;;;;;;;9.13;6.70;;;;;;;11.41;100.00;101759.91;2073791;28;20602;-61
2022/10/09 01:31:04;;;;;;;11.10;6.30;;;;;;;11.81;100.00;101809.94;2073712;28;20899;-61
2022/10/09 01:32:08;;;;;;;11.27;6.23;;;;;;;11.82;100.00;101816.25;2073745;28;20421;-60
2022/10/09 01:33:10;;;;;;;6.93;6.10;;;;;;;11.84;100.00;101813.88;2073574;28;20415;-61
2022/10/09 01:34:13;;;;;;;8.23;6.37;;;;;;;11.82;100.00;101810.69;2073686;28;20460;-61
2022/10/09 01:35:14;;;;;;;8.17;6.20;;;;;;;11.85;100.00;101813.47;2073570;28;20864;-61
2022/10/09 01:36:16;;;;;;;9.27;6.30;;;;;;;11.87;100.00;101813.81;2073628;28;20998;-61
2022/10/09 01:37:20;;;;;;;8.93;6.40;;;;;;;11.88;100.00;101815.41;2073641;28;20426;-61
2022/10/09 01:38:23;;;;;;;7.63;6.30;;;;;;;11.89;100.00;101821.75;2073463;28;20940;-61
2022/10/09 01:39:25;;;;;;;6.97;6.07;;;;;;;11.90;100.00;101820.56;2073618;28;20457;-61
2022/10/09 01:40:27;;;;;;;8.17;6.73;;;;;;;11.87;100.00;101815.81;2073518;28;20416;-61
2022/10/09 01:41:28;;;;;;;10.17;6.20;;;;;;;11.92;100.00;101824.50;2073522;28;20476;-61
2022/10/09 01:42:30;;;;;;;8.87;6.70;;;;;;;11.94;100.00;101821.31;2073515;28;20503;-61
2022/10/09 01:43:31;;;;;;;9.03;6.60;;;;;;;11.93;100.00;101820.50;2073516;28;20185;-61
2022/10/09 01:44:32;;;;;;;8.50;6.27;;;;;;;11.89;100.00;101827.31;2073641;28;20414;-61
2022/10/09 01:45:41;;;;;;;7.53;6.10;;;;;;;11.86;100.00;101825.34;2073714;28;20239;-61
2022/10/09 01:46:41;;;;;;;8.30;6.07;;;;;;;11.61;100.00;101785.91;2073525;28;20852;-61
2022/10/09 01:47:42;;;;;;;8.53;6.10;;;;;;;11.82;100.00;101828.16;2073576;28;20481;-61
2022/10/09 01:48:46;;;;;;;7.47;5.87;;;;;;;11.48;100.00;101763.41;2072977;28;20672;-61
2022/10/09 01:49:55;;;;;;;10.90;5.70;;;;;;;11.80;100.00;101819.47;2073622;28;20672;-61
2022/10/09 01:51:03;;;;;;;9.03;5.73;;;;;;;11.79;100.00;101811.53;2073435;28;21007;-61
2022/10/09 01:52:18;;;;;;;8.53;5.77;;;;;;;11.77;100.00;101816.69;2072753;28;20941;-61
2022/10/09 01:53:20;;;;;;;7.67;5.47;;;;;;;11.65;100.00;101800.56;2072969;28;20402;-61
2022/10/09 01:54:33;;;;;;;7.70;5.50;;;;;;;11.73;100.00;101815.97;2073467;28;20531;-62
2022/10/09 01:55:40;;;;;;;7.13;5.50;;;;;;;11.29;100.00;101752.91;2073516;28;20429;-61
2022/10/09 01:56:46;;;;;;;7.30;5.73;;;;;;;11.70;100.00;101820.34;2073377;28;20923;-61
2022/10/09 01:58:08;;;;;;;8.53;5.53;;;;;;;11.71;100.00;101821.13;2073525;28;20409;-61
2022/10/09 01:59:14;;;;;;;6.87;5.83;;;;;;;11.69;100.00;101820.75;2073399;28;20466;-61
2022/10/09 02:00:15;;;;;;;8.53;6.00;;;;;;;11.70;100.00;101825.09;2073425;28;21019;-61
2022/10/09 02:01:38;;;;;;;8.03;6.20;;;;;;;11.69;100.00;101815.97;2073486;28;21013;-61
2022/10/09 02:02:41;;;;;;;7.23;6.20;;;;;;;11.70;100.00;101822.34;2073342;28;20218;-61
2022/10/09 02:03:46;;;;;;;10.10;6.70;;;;;;;11.67;100.00;101826.72;2073490;28;20510;-62
2022/10/09 02:04:48;;;;;;;9.13;6.23;;;;;;;11.60;100.00;101806.56;2073483;28;20445;-61
2022/10/09 02:05:51;;;;;;;9.47;5.83;;;;;;;11.67;100.00;101820.38;2073298;28;20432;-61
2022/10/09 02:06:53;;;;;;;8.60;6.40;;;;;;;11.65;100.00;101823.56;2073009;28;20440;-61
2022/10/09 02:07:55;;;;;;;8.43;6.33;;;;;;;11.65;100.00;101823.56;2073116;28;20894;-61
2022/10/09 02:08:57;;;;;;;9.43;6.30;;;;;;;11.65;100.00;101826.34;2073470;28;20443;-61
2022/10/09 02:10:01;;;;;;;12.97;6.27;;;;;;;11.30;100.00;101775.88;2073234;28;20780;-61
2022/10/09 02:11:02;;;;;;;13.30;6.87;;;;;;;11.61;100.00;101831.16;2073062;28;20433;-61
2022/10/09 02:12:06;;;;;;;12.13;7.50;;;;;;;11.62;100.00;101834.69;2073406;28;20459;-61
2022/10/09 02:13:07;;;;;;;11.40;6.50;;;;;;;11.58;100.00;101831.91;2073348;28;20566;-61
2022/10/09 02:14:08;;;;;;;11.70;6.63;;;;;;;11.57;100.00;101827.56;2073340;28;20428;-62
2022/10/09 02:15:09;;;;;;;11.77;6.70;;;;;;;11.56;100.00;101822.44;2073283;28;20228;-61
2022/10/09 02:16:28;;;;;;;14.20;6.63;;;;;;;11.55;100.00;101827.22;2072747;28;20667;-61
2022/10/09 02:17:32;;;;;;;11.50;6.60;;;;;;;11.55;100.00;101826.41;2073124;28;20452;-61
2022/10/09 02:18:39;;;;;;;13.10;6.77;;;;;;;11.55;100.00;101820.84;2073285;28;20424;-63
2022/10/09 02:19:46;;;;;;;10.17;6.40;;;;;;;11.54;100.00;101825.59;2073388;28;20983;-61
2022/10/09 02:20:50;;;;;;;10.17;5.90;;;;;;;11.51;100.00;101823.66;2073344;28;20423;-61
2022/10/09 02:21:59;;;;;;;9.53;5.70;;;;;;;11.54;100.00;101827.59;2073126;28;20435;-61
2022/10/09 02:23:04;;;;;;;7.83;5.73;;;;;;;11.54;100.00;101836.72;2073045;28;20410;-61
2022/10/09 02:24:08;;;;;;;9.93;6.20;;;;;;;11.04;100.00;101754.28;2073238;28;20412;-61
2022/10/09 02:25:09;;;;;;;10.37;5.90;;;;;;;11.50;100.00;101835.16;2065169;28;20992;-62
2022/10/09 02:26:11;;;;;;;9.97;6.33;;;;;;;11.50;100.00;101832.41;2071669;28;20856;-61
2022/10/09 02:27:13;;;;;;;8.00;6.30;;;;;;;11.46;100.00;101834.41;2073267;28;20185;-61
2022/10/09 02:28:14;;;;;;;15.73;7.27;;;;;;;11.46;100.00;101831.63;2073304;28;20417;-60
2022/10/09 02:29:15;;;;;;;13.87;6.13;;;;;;;11.46;100.00;101840.75;2071407;28;20417;-62
2022/10/09 02:30:18;;;;;;;11.90;7.17;;;;;;;11.29;100.00;101807.59;2066741;28;20185;-60
2022/10/09 02:31:25;;;;;;;9.90;6.40;;;;;;;11.44;100.00;101836.81;2081374;28;20178;-61
2022/10/09 02:32:25;;;;;;;10.33;6.53;;;;;;;11.43;100.00;101840.78;2081322;28;20470;-61
2022/10/09 02:33:33;;;;;;;7.93;6.30;;;;;;;11.41;100.00;101838.41;2081418;28;20421;-61
2022/10/09 02:34:33;;;;;;;12.07;6.80;;;;;;;11.36;100.00;101835.28;2074627;28;20248;-62
2022/10/09 02:35:34;;;;;;;9.23;6.23;;;;;;;11.33;100.00;101831.34;2072548;28;20424;-61
2022/10/09 02:36:36;;;;;;;10.50;6.57;;;;;;;11.11;100.00;101798.59;2072557;28;20186;-61
2022/10/09 02:37:36;;;;;;;9.77;6.50;;;;;;;11.39;100.00;101846.38;2073077;28;20429;-62
2022/10/09 02:38:37;;;;;;;6.30;5.57;;;;;;;11.40;100.00;101836.84;2072852;28;20956;-61
2022/10/09 02:39:37;;;;;;;11.07;6.30;;;;;;;11.42;100.00;101842.00;2073110;28;20182;-61
2022/10/09 02:40:37;;;;;;;8.67;5.67;;;;;;;11.42;100.00;101842.00;2073216;28;20238;-61
2022/10/09 02:41:38;;;;;;;6.57;5.80;;;;;;;11.43;100.00;101844.34;2073238;28;20544;-61
2022/10/09 02:42:38;;;;;;;10.00;6.20;;;;;;;11.43;100.00;101841.56;2073205;28;20269;-61
2022/10/09 02:43:39;;;;;;;9.97;7.00;;;;;;;11.27;100.00;101810.78;2073126;28;20173;-62
2022/10/09 02:44:39;;;;;;;11.43;6.90;;;;;;;11.45;100.00;101836.41;2072988;28;20188;-61
2022/10/09 02:45:40;;;;;;;7.53;6.13;;;;;;;11.46;100.00;101840.75;2073287;28;20193;-61
2022/10/09 02:46:40;;;;;;;7.83;5.90;;;;;;;11.17;100.00;101791.44;2073116;28;20268;-61
2022/10/09 02:47:40;;;;;;;6.83;6.07;;;;;;;11.37;100.00;101829.31;2073146;28;20539;-61
2022/10/09 02:48:41;;;;;;;10.27;6.53;;;;;;;11.41;100.00;101832.06;2072387;28;20283;-61
2022/10/09 02:49:42;;;;;;;8.17;6.60;;;;;;;11.40;100.00;101830.50;2072500;28;20204;-60
2022/10/09 02:50:42;;;;;;;7.70;6.10;;;;;;;11.41;100.00;101835.66;2065024;28;20179;-63
2022/10/09 02:51:43;;;;;;;8.03;6.13;;;;;;;11.41;100.00;101832.06;2065146;28;20682;-61
2022/10/09 02:52:43;;;;;;;6.67;6.00;;;;;;;11.41;100.00;101834.84;2065107;28;20208;-61
2022/10/09 02:53:44;;;;;;;7.27;6.17;;;;;;;11.39;100.00;101838.06;2065186;28;20181;-61
2022/10/09 02:54:44;;;;;;;6.97;5.93;;;;;;;11.39;100.00;101829.72;2065008;28;20219;-61
2022/10/09 02:55:45;;;;;;;6.37;5.77;;;;;;;11.39;100.00;101828.91;2065068;28;20221;-62
2022/10/09 02:56:45;;;;;;;6.30;5.70;;;;;;;11.25;100.00;101807.63;2064994;28;20661;-61
2022/10/09 02:57:45;;;;;;;6.93;5.60;;;;;;;11.39;100.00;101828.91;2065109;28;20178;-61
2022/10/09 02:58:46;;;;;;;9.80;5.90;;;;;;;11.27;100.00;101815.56;2065046;28;20382;-60
2022/10/09 02:59:46;;;;;;;9.53;5.80;;;;;;;11.33;100.00;101820.22;2064403;28;20270;-62
2022/10/09 03:00:51;;;;;;;7.83;5.70;;;;;;;11.37;100.00;101825.78;2068675;28;20682;-62
2022/10/09 03:01:52;;;;;;;6.70;5.67;;;;;;;11.35;100.00;101822.59;2065031;28;20185;-62
2022/10/09 03:02:52;;;;;;;6.37;5.47;;;;;;;11.36;100.00;101826.94;2064993;28;20432;-61
2022/10/09 03:03:52;;;;;;;9.40;6.23;;;;;;;11.34;100.00;101830.16;2066089;28;20186;-62
2022/10/09 03:04:53;;;;;;;7.83;5.43;;;;;;;11.35;100.00;101831.72;2073156;28;20177;-61
2022/10/09 03:06:01;;;;;;;8.53;5.60;;;;;;;11.36;100.00;101821.41;2073089;28;20596;-62
2022/10/09 03:07:02;;;;;;;6.77;5.90;;;;;;;11.35;100.00;101828.97;2073080;28;20189;-62
2022/10/09 03:08:02;;;;;;;7.20;5.90;;;;;;;11.35;100.00;101828.16;2073011;28;20422;-61
2022/10/09 03:09:03;;;;;;;6.63;5.80;;;;;;;11.37;100.00;101831.31;2072407;28;20196;-62
2022/10/09 03:10:03;;;;;;;7.27;6.13;;;;;;;11.36;100.00;101833.31;2072437;28;20684;-62
2022/10/09 03:11:04;;;;;;;8.03;6.40;;;;;;;11.36;100.00;101833.31;2064977;28;20181;-62
2022/10/09 03:12:05;;;;;;;9.47;6.77;;;;;;;11.36;100.00;101838.06;2065055;28;20214;-62
2022/10/09 03:13:05;;;;;;;8.63;6.50;;;;;;;11.36;100.00;101843.59;2064926;28;20180;-62
2022/10/09 03:14:06;;;;;;;7.80;6.33;;;;;;;11.37;100.00;101842.44;2064964;28;20568;-61
2022/10/09 03:15:07;;;;;;;8.53;6.07;;;;;;;11.37;100.00;101840.44;2064942;28;20210;-60
2022/10/09 03:16:13;;;;;;;9.57;5.90;;;;;;;11.38;100.00;101842.00;2064926;28;20257;-60
2022/10/09 03:17:14;;;;;;;7.47;6.03;;;;;;;11.36;100.00;101843.59;2071583;28;20420;-61
2022/10/09 03:18:14;;;;;;;6.87;6.03;;;;;;;11.34;100.00;101832.13;2073002;28;20452;-61
2022/10/09 03:19:15;;;;;;;9.77;6.23;;;;;;;11.38;100.00;101841.22;2073065;28;20235;-61
2022/10/09 03:20:15;;;;;;;7.37;5.90;;;;;;;11.39;100.00;101845.56;2073014;28;20689;-61
2022/10/09 03:21:19;;;;;;;10.77;6.83;;;;;;;11.36;100.00;101843.59;2073138;28;20238;-61
2022/10/09 03:22:19;;;;;;;7.23;6.53;;;;;;;11.22;100.00;101827.84;2073116;28;20174;-61
2022/10/09 03:23:19;;;;;;;10.30;6.80;;;;;;;11.31;100.00;101836.50;2072984;28;20515;-60
2022/10/09 03:24:20;;;;;;;9.17;6.97;;;;;;;11.34;100.00;101844.03;2073052;28;20170;-61
2022/10/09 03:25:20;;;;;;;11.17;7.17;;;;;;;11.33;100.00;101850.75;2073059;28;20202;-61
2022/10/09 03:26:23;;;;;;;8.47;7.13;;;;;;;11.34;100.00;101846.81;2073043;28;20181;-61
2022/10/09 03:27:24;;;;;;;10.07;6.97;;;;;;;11.36;100.00;101849.16;2073096;28;20202;-60
2022/10/09 03:28:24;;;;;;;9.17;6.83;;;;;;;11.37;100.00;101850.75;2073541;28;20436;-61
2022/10/09 03:29:25;;;;;;;9.70;7.27;;;;;;;11.36;100.00;101849.16;2074470;28;20182;-61
2022/10/09 03:30:25;;;;;;;8.93;6.27;;;;;;;11.31;100.00;101841.25;2074594;28;20647;-61
2022/10/09 03:31:26;;;;;;;8.63;6.97;;;;;;;11.33;100.00;101844.44;2074605;28;20263;-61
2022/10/09 03:32:26;;;;;;;8.63;6.87;;;;;;;11.27;100.00;101848.84;2074582;28;20307;-60
2022/10/09 03:33:27;;;;;;;8.70;7.13;;;;;;;10.85;100.00;101785.31;2074550;28;20182;-60
2022/10/09 03:34:27;;;;;;;9.00;7.20;;;;;;;11.21;100.00;101847.69;2074427;28;20711;-61
2022/10/09 03:35:28;;;;;;;9.67;7.00;;;;;;;11.22;100.00;101847.28;2074539;28;20209;-61
2022/10/09 03:36:28;;;;;;;7.33;6.60;;;;;;;11.17;100.00;101842.16;2074465;28;20559;-62
2022/10/09 03:37:29;;;;;;;10.70;6.97;;;;;;;11.19;100.00;101848.13;2074577;28;20170;-62
2022/10/09 03:38:29;;;;;;;11.53;7.70;;;;;;;11.20;100.00;101849.69;2074514;28;20240;-61
2022/10/09 03:39:30;;;;;;;8.80;7.13;;;;;;;11.16;100.00;101842.56;2074591;28;20251;-62
2022/10/09 03:40:30;;;;;;;9.47;8.10;;;;;;;11.22;100.00;101854.84;2074566;28;20188;-62
2022/10/09 03:41:31;;;;;;;12.10;8.00;;;;;;;11.23;100.00;101854.41;2074570;28;20180;-62
2022/10/09 03:42:31;;;;;;;8.80;7.90;;;;;;;11.26;100.00;101850.03;2074352;28;20185;-61
2022/10/09 03:43:32;;;;;;;12.57;7.90;;;;;;;11.25;100.00;101852.03;2074508;28;20217;-62
2022/10/09 03:44:32;;;;;;;10.40;7.30;;;;;;;11.27;100.00;101857.94;2074555;28;20173;-61
2022/10/09 03:45:33;;;;;;;9.90;7.53;;;;;;;11.27;100.00;101860.72;2074459;28;20178;-61
2022/10/09 03:46:33;;;;;;;10.47;8.17;;;;;;;11.27;100.00;101854.41;2074447;28;20561;-61
2022/10/09 03:47:34;;;;;;;14.63;8.10;;;;;;;11.28;100.00;101862.28;2074424;28;20174;-61
2022/10/09 03:48:35;;;;;;;16.20;9.47;;;;;;;10.79;100.00;101775.84;2073796;28;20233;-62
2022/10/09 03:49:35;;;;;;;13.37;8.37;;;;;;;11.30;100.00;101859.91;2074007;28;20164;-62
2022/10/09 03:50:37;;;;;;;18.10;8.93;;;;;;;11.31;100.00;101853.16;2074283;28;20435;-62
2022/10/09 03:51:37;;;;;;;15.13;9.13;;;;;;;11.33;100.00;101858.31;2074440;28;20495;-62
2022/10/09 03:52:39;;;;;;;15.10;8.30;;;;;;;11.31;100.00;101858.72;2074461;28;20427;-62
2022/10/09 03:53:39;;;;;;;12.47;8.13;;;;;;;11.31;100.00;101857.91;2074395;28;20180;-62
2022/10/09 03:54:39;;;;;;;15.93;7.97;;;;;;;11.31;100.00;101855.13;2074324;28;20425;-62
2022/10/09 03:55:41;;;;;;;11.07;8.03;;;;;;;11.33;100.00;101872.97;2074415;28;20180;-62
2022/10/09 03:56:41;;;;;;;10.60;7.63;;;;;;;11.32;100.00;101854.75;2074482;28;20260;-61
2022/10/09 03:57:41;;;;;;;12.13;8.30;;;;;;;11.34;100.00;101852.38;2074400;28;20432;-62
2022/10/09 03:58:42;;;;;;;15.10;8.03;;;;;;;11.33;100.00;101859.09;2074270;28;20187;-61
2022/10/09 03:59:42;;;;;;;11.20;8.03;;;;;;;11.37;100.00;101853.53;2074388;28;20615;-62
2022/10/09 04:00:44;;;;;;;13.13;8.17;;;;;;;11.40;100.00;101852.69;2074434;28;20186;-63
2022/10/09 04:01:45;;;;;;;12.33;8.07;;;;;;;11.40;100.00;101853.50;2074454;28;20182;-63
2022/10/09 04:02:45;;;;;;;10.43;8.00;;;;;;;11.42;100.00;101855.88;2074321;28;20431;-63
2022/10/09 04:03:46;;;;;;;12.37;8.67;;;;;;;11.43;100.00;101854.66;2074349;28;20272;-62
2022/10/09 04:04:46;;;;;;;14.60;8.07;;;;;;;11.22;100.00;101825.09;2073691;28;20241;-62
2022/10/09 04:05:47;;;;;;;12.83;8.30;;;;;;;11.45;100.00;101860.59;2073747;28;20633;-62
2022/10/09 04:06:47;;;;;;;10.80;7.80;;;;;;;11.46;100.00;101862.16;2074323;28;20276;-62
2022/10/09 04:07:48;;;;;;;10.63;8.20;;;;;;;11.45;100.00;101866.94;2074288;28;20694;-62
2022/10/09 04:08:48;;;;;;;11.40;7.73;;;;;;;11.37;100.00;101853.53;2074337;28;20220;-63
2022/10/09 04:09:49;;;;;;;13.80;8.27;;;;;;;11.46;100.00;101862.97;2074364;28;20212;-62
2022/10/09 04:10:57;;;;;;;9.50;7.80;;;;;;;11.47;100.00;101866.53;2074292;28;20186;-61
2022/10/09 04:11:57;;;;;;;15.23;8.47;;;;;;;11.48;100.00;101866.13;2074312;28;20232;-62
2022/10/09 04:12:58;;;;;;;13.17;8.60;;;;;;;11.50;100.00;101868.47;2074313;28;20413;-62
2022/10/09 04:13:59;;;;;;;17.10;8.50;;;;;;;11.50;100.00;101869.28;2074298;28;20181;-62
2022/10/09 04:14:59;;;;;;;12.60;8.53;;;;;;;11.52;100.00;101868.88;2074285;28;20205;-62
2022/10/09 04:16:00;;;;;;;14.10;8.77;;;;;;;11.38;100.00;101844.78;2074246;28;20187;-62
2022/10/09 04:17:00;;;;;;;15.53;8.67;;;;;;;11.32;100.00;101837.31;2074338;28;20206;-62
2022/10/09 04:18:01;;;;;;;11.67;8.17;;;;;;;11.55;100.00;101862.50;2074173;28;20571;-61
2022/10/09 04:19:02;;;;;;;13.43;8.13;;;;;;;11.55;100.00;101863.28;2074505;28;20201;-61
2022/10/09 04:20:02;;;;;;;11.53;7.53;;;;;;;11.58;100.00;101859.69;2074238;28;20177;-61
2022/10/09 04:21:03;;;;;;;11.43;7.43;;;;;;;11.60;100.00;101862.09;2073550;28;20696;-62
2022/10/09 04:22:03;;;;;;;10.13;7.47;;;;;;;11.61;100.00;101861.69;2073526;28;20179;-62
2022/10/09 04:23:04;;;;;;;13.37;8.00;;;;;;;11.60;100.00;101857.34;2074209;28;20181;-62
2022/10/09 04:24:07;;;;;;;11.67;7.73;;;;;;;11.62;100.00;101857.69;2073937;28;20208;-62
2022/10/09 04:25:08;;;;;;;11.60;7.93;;;;;;;11.62;100.00;101849.38;2074226;28;20175;-63
2022/10/09 04:26:10;;;;;;;13.50;8.40;;;;;;;11.61;100.00;101853.34;2074245;28;20408;-62
2022/10/09 04:27:11;;;;;;;12.27;7.47;;;;;;;11.63;100.00;101856.50;2074283;28;20182;-62
2022/10/09 04:28:11;;;;;;;13.13;7.90;;;;;;;11.64;100.00;101860.84;2074147;28;20428;-62
2022/10/09 04:29:12;;;;;;;15.63;8.43;;;;;;;11.60;100.00;101860.13;2074212;28;20652;-62
2022/10/09 04:30:12;;;;;;;10.53;7.77;;;;;;;11.66;100.00;101869.56;2074188;28;20627;-62
2022/10/09 04:31:13;;;;;;;10.13;8.00;;;;;;;11.63;100.00;101872.38;2074130;28;20178;-62
2022/10/09 04:32:13;;;;;;;10.67;7.13;;;;;;;11.63;100.00;101875.94;2069399;28;20202;-62
2022/10/09 04:33:14;;;;;;;11.53;7.40;;;;;;;11.31;100.00;101819.06;2065993;28;20646;-63
2022/10/09 04:34:14;;;;;;;10.73;6.83;;;;;;;11.66;100.00;101877.09;2068057;28;20185;-63
2022/10/09 04:35:15;;;;;;;9.60;6.23;;;;;;;11.66;100.00;101874.31;2074192;28;20248;-62
2022/10/09 04:36:16;;;;;;;8.37;6.83;;;;;;;11.64;100.00;101868.41;2074118;28;20180;-62
2022/10/09 04:37:16;;;;;;;13.50;7.37;;;;;;;11.65;100.00;101873.56;2074155;28;20682;-60
2022/10/09 04:38:17;;;;;;;10.30;6.73;;;;;;;11.59;100.00;101869.63;2074009;28;20185;-60
2022/10/09 04:39:17;;;;;;;7.90;6.57;;;;;;;11.65;100.00;101865.22;2073475;28;20239;-59
2022/10/09 04:40:18;;;;;;;10.07;7.03;;;;;;;11.64;100.00;101871.19;2074078;28;20414;-60
2022/10/09 04:41:19;;;;;;;10.73;7.30;;;;;;;11.63;100.00;101873.16;2074059;28;20260;-60
2022/10/09 04:42:19;;;;;;;11.03;7.27;;;;;;;11.65;100.00;101872.75;2073985;28;20559;-60
2022/10/09 04:43:19;;;;;;;9.43;6.90;;;;;;;11.65;100.00;101876.34;2073977;28;20179;-60
2022/10/09 04:44:20;;;;;;;12.93;7.73;;;;;;;11.63;100.00;101878.72;2074182;28;20193;-60
2022/10/09 04:45:20;;;;;;;11.67;8.00;;;;;;;11.62;100.00;101876.34;2073996;28;20184;-60
2022/10/09 04:46:22;;;;;;;9.67;7.90;;;;;;;10.97;100.00;101784.84;2073904;28;20284;-61
2022/10/09 04:47:22;;;;;;;10.50;8.13;;;;;;;11.58;100.00;101881.91;2073706;28;20206;-60